sensor_id;sensor_type;location;lat;lon;timestamp;pressure;altitude;pressure_sealevel;temperature
69007;BMP180;56061;51.748;19.620;2022-07-29T00:02:14;99399.20;;;12.46
69007;BMP180;56061;51.748;19.620;2022-07-29T00:04:41;99404.00;;;12.40
69007;BMP180;56061;51.748;19.620;2022-07-29T00:07:07;99405.40;;;12.50
69007;BMP180;56061;51.748;19.620;2022-07-29T00:09:35;99399.00;;;12.50
69007;BMP180;56061;51.748;19.620;2022-07-29T00:12:17;99400.80;;;12.52
69007;BMP180;56061;51.748;19.620;2022-07-29T00:14:53;99402.80;;;12.56
69007;BMP180;56061;51.748;19.620;2022-07-29T00:17:20;99397.60;;;12.50
69007;BMP180;56061;51.748;19.620;2022-07-29T00:19:47;99392.80;;;12.50
69007;BMP180;56061;51.748;19.620;2022-07-29T00:22:14;99401.00;;;12.50
69007;BMP180;56061;51.748;19.620;2022-07-29T00:24:40;99400.40;;;12.40
69007;BMP180;56061;51.748;19.620;2022-07-29T00:27:07;99405.40;;;12.40
69007;BMP180;56061;51.748;19.620;2022-07-29T00:29:34;99408.40;;;12.38
69007;BMP180;56061;51.748;19.620;2022-07-29T00:32:02;99409.00;;;12.32
69007;BMP180;56061;51.748;19.620;2022-07-29T00:34:30;99415.40;;;12.40
69007;BMP180;56061;51.748;19.620;2022-07-29T00:37:16;99410.80;;;12.40
69007;BMP180;56061;51.748;19.620;2022-07-29T00:39:42;99411.00;;;12.50
69007;BMP180;56061;51.748;19.620;2022-07-29T00:42:09;99409.60;;;12.50
69007;BMP180;56061;51.748;19.620;2022-07-29T00:44:40;99410.60;;;12.50
69007;BMP180;56061;51.748;19.620;2022-07-29T00:47:10;99413.60;;;12.50
69007;BMP180;56061;51.748;19.620;2022-07-29T00:49:40;99418.80;;;12.50
69007;BMP180;56061;51.748;19.620;2022-07-29T00:52:09;99417.60;;;12.40
69007;BMP180;56061;51.748;19.620;2022-07-29T00:54:39;99423.00;;;12.40
69007;BMP180;56061;51.748;19.620;2022-07-29T00:57:11;99418.20;;;12.30
69007;BMP180;56061;51.748;19.620;2022-07-29T00:59:38;99419.40;;;12.30
69007;BMP180;56061;51.748;19.620;2022-07-29T01:02:04;99419.20;;;12.20
69007;BMP180;56061;51.748;19.620;2022-07-29T01:04:32;99413.20;;;12.20
69007;BMP180;56061;51.748;19.620;2022-07-29T01:07:02;99414.00;;;12.14
69007;BMP180;56061;51.748;19.620;2022-07-29T01:09:32;99411.80;;;12.08
69007;BMP180;56061;51.748;19.620;2022-07-29T01:12:16;99411.60;;;12.00
69007;BMP180;56061;51.748;19.620;2022-07-29T01:14:44;99409.60;;;11.90
69007;BMP180;56061;51.748;19.620;2022-07-29T01:17:19;99405.40;;;11.80
69007;BMP180;56061;51.748;19.620;2022-07-29T01:22:31;99401.00;;;11.72
69007;BMP180;56061;51.748;19.620;2022-07-29T01:25:25;99400.40;;;11.78
69007;BMP180;56061;51.748;19.620;2022-07-29T01:31:16;99390.40;;;11.80
69007;BMP180;56061;51.748;19.620;2022-07-29T01:34:02;99388.80;;;11.78
69007;BMP180;56061;51.748;19.620;2022-07-29T01:36:37;99389.20;;;11.70
69007;BMP180;56061;51.748;19.620;2022-07-29T01:39:34;99390.60;;;11.66
69007;BMP180;56061;51.748;19.620;2022-07-29T01:42:29;99393.60;;;11.62
69007;BMP180;56061;51.748;19.620;2022-07-29T01:45:06;99387.60;;;11.70
69007;BMP180;56061;51.748;19.620;2022-07-29T01:47:46;99393.80;;;11.70
69007;BMP180;56061;51.748;19.620;2022-07-29T01:50:18;99391.80;;;11.78
69007;BMP180;56061;51.748;19.620;2022-07-29T01:52:56;99390.20;;;11.80
69007;BMP180;56061;51.748;19.620;2022-07-29T01:55:29;99392.00;;;11.70
69007;BMP180;56061;51.748;19.620;2022-07-29T01:57:59;99388.20;;;11.70
69007;BMP180;56061;51.748;19.620;2022-07-29T02:00:28;99388.20;;;11.70
69007;BMP180;56061;51.748;19.620;2022-07-29T02:02:58;99391.00;;;11.60
69007;BMP180;56061;51.748;19.620;2022-07-29T02:05:28;99394.60;;;11.50
69007;BMP180;56061;51.748;19.620;2022-07-29T02:07:58;99393.80;;;11.40
69007;BMP180;56061;51.748;19.620;2022-07-29T02:13:15;99389.00;;;11.30
69007;BMP180;56061;51.748;19.620;2022-07-29T02:15:45;99389.80;;;11.30
69007;BMP180;56061;51.748;19.620;2022-07-29T02:18:17;99388.00;;;11.30
69007;BMP180;56061;51.748;19.620;2022-07-29T02:20:48;99391.60;;;11.20
69007;BMP180;56061;51.748;19.620;2022-07-29T02:23:20;99391.00;;;11.20
69007;BMP180;56061;51.748;19.620;2022-07-29T02:25:51;99391.20;;;11.10
69007;BMP180;56061;51.748;19.620;2022-07-29T02:28:22;99394.00;;;11.04
69007;BMP180;56061;51.748;19.620;2022-07-29T02:30:53;99391.80;;;11.02
69007;BMP180;56061;51.748;19.620;2022-07-29T02:33:23;99385.40;;;11.00
69007;BMP180;56061;51.748;19.620;2022-07-29T02:35:52;99376.60;;;11.00
69007;BMP180;56061;51.748;19.620;2022-07-29T02:38:20;99376.20;;;11.00
69007;BMP180;56061;51.748;19.620;2022-07-29T02:41:15;99375.60;;;10.90
69007;BMP180;56061;51.748;19.620;2022-07-29T02:43:46;99374.20;;;10.90
69007;BMP180;56061;51.748;19.620;2022-07-29T02:46:21;99371.40;;;10.90
69007;BMP180;56061;51.748;19.620;2022-07-29T02:49:10;99371.00;;;10.90
69007;BMP180;56061;51.748;19.620;2022-07-29T02:52:03;99367.00;;;10.90
69007;BMP180;56061;51.748;19.620;2022-07-29T02:54:51;99367.80;;;10.90
69007;BMP180;56061;51.748;19.620;2022-07-29T02:57:47;99371.00;;;10.80
69007;BMP180;56061;51.748;19.620;2022-07-29T03:00:23;99372.20;;;10.80
69007;BMP180;56061;51.748;19.620;2022-07-29T03:02:57;99372.40;;;10.78
69007;BMP180;56061;51.748;19.620;2022-07-29T03:05:25;99369.40;;;10.80
69007;BMP180;56061;51.748;19.620;2022-07-29T03:07:58;99372.20;;;10.86
69007;BMP180;56061;51.748;19.620;2022-07-29T03:10:27;99373.40;;;10.84
69007;BMP180;56061;51.748;19.620;2022-07-29T03:12:56;99374.60;;;10.90
69007;BMP180;56061;51.748;19.620;2022-07-29T03:15:25;99373.40;;;10.82
69007;BMP180;56061;51.748;19.620;2022-07-29T03:17:53;99373.80;;;10.88
69007;BMP180;56061;51.748;19.620;2022-07-29T03:20:22;99366.40;;;10.80
69007;BMP180;56061;51.748;19.620;2022-07-29T03:22:48;99366.00;;;10.80
69007;BMP180;56061;51.748;19.620;2022-07-29T03:25:18;99364.20;;;10.80
69007;BMP180;56061;51.748;19.620;2022-07-29T03:27:47;99368.80;;;10.80
69007;BMP180;56061;51.748;19.620;2022-07-29T03:30:14;99370.00;;;10.80
69007;BMP180;56061;51.748;19.620;2022-07-29T03:32:49;99369.00;;;10.80
69007;BMP180;56061;51.748;19.620;2022-07-29T03:35:18;99376.80;;;10.80
69007;BMP180;56061;51.748;19.620;2022-07-29T03:37:49;99374.40;;;10.80
69007;BMP180;56061;51.748;19.620;2022-07-29T03:40:27;99373.00;;;10.90
69007;BMP180;56061;51.748;19.620;2022-07-29T03:42:59;99373.60;;;10.94
69007;BMP180;56061;51.748;19.620;2022-07-29T03:45:28;99374.00;;;11.00
69007;BMP180;56061;51.748;19.620;2022-07-29T03:48:07;99377.60;;;11.10
69007;BMP180;56061;51.748;19.620;2022-07-29T03:50:35;99378.20;;;11.10
69007;BMP180;56061;51.748;19.620;2022-07-29T03:53:03;99379.80;;;11.18
69007;BMP180;56061;51.748;19.620;2022-07-29T03:55:37;99379.60;;;11.30
69007;BMP180;56061;51.748;19.620;2022-07-29T03:58:07;99377.80;;;11.30
69007;BMP180;56061;51.748;19.620;2022-07-29T04:00:36;99381.40;;;11.40
69007;BMP180;56061;51.748;19.620;2022-07-29T04:03:04;99383.80;;;11.50
69007;BMP180;56061;51.748;19.620;2022-07-29T04:05:36;99387.40;;;11.66
69007;BMP180;56061;51.748;19.620;2022-07-29T04:08:03;99385.20;;;11.70
69007;BMP180;56061;51.748;19.620;2022-07-29T04:10:29;99383.60;;;11.70
69007;BMP180;56061;51.748;19.620;2022-07-29T04:12:58;99381.60;;;11.80
69007;BMP180;56061;51.748;19.620;2022-07-29T04:15:26;99387.00;;;11.90
69007;BMP180;56061;51.748;19.620;2022-07-29T04:17:57;99391.40;;;12.00
69007;BMP180;56061;51.748;19.620;2022-07-29T04:20:24;99391.80;;;12.10
69007;BMP180;56061;51.748;19.620;2022-07-29T04:22:50;99395.60;;;12.22
69007;BMP180;56061;51.748;19.620;2022-07-29T04:25:17;99393.40;;;12.42
69007;BMP180;56061;51.748;19.620;2022-07-29T04:27:43;99396.80;;;12.60
69007;BMP180;56061;51.748;19.620;2022-07-29T04:30:30;99396.00;;;12.84
69007;BMP180;56061;51.748;19.620;2022-07-29T04:32:59;99396.00;;;13.00
69007;BMP180;56061;51.748;19.620;2022-07-29T04:35:29;99401.80;;;13.16
69007;BMP180;56061;51.748;19.620;2022-07-29T04:38:05;99396.80;;;13.30
69007;BMP180;56061;51.748;19.620;2022-07-29T04:40:33;99394.40;;;13.40
69007;BMP180;56061;51.748;19.620;2022-07-29T04:43:04;99398.40;;;13.50
69007;BMP180;56061;51.748;19.620;2022-07-29T04:45:31;99393.00;;;13.60
69007;BMP180;56061;51.748;19.620;2022-07-29T04:47:57;99391.80;;;13.70
69007;BMP180;56061;51.748;19.620;2022-07-29T04:50:24;99393.60;;;13.80
69007;BMP180;56061;51.748;19.620;2022-07-29T04:52:51;99389.80;;;13.90
69007;BMP180;56061;51.748;19.620;2022-07-29T04:55:17;99392.00;;;13.96
69007;BMP180;56061;51.748;19.620;2022-07-29T04:57:44;99385.00;;;14.00
69007;BMP180;56061;51.748;19.620;2022-07-29T05:00:12;99388.80;;;14.10
69007;BMP180;56061;51.748;19.620;2022-07-29T05:02:38;99388.80;;;14.20
69007;BMP180;56061;51.748;19.620;2022-07-29T05:05:05;99390.20;;;14.28
69007;BMP180;56061;51.748;19.620;2022-07-29T05:07:32;99393.80;;;14.40
69007;BMP180;56061;51.748;19.620;2022-07-29T05:09:59;99393.80;;;14.50
69007;BMP180;56061;51.748;19.620;2022-07-29T05:12:25;99394.00;;;14.60
69007;BMP180;56061;51.748;19.620;2022-07-29T05:14:53;99393.80;;;14.60
69007;BMP180;56061;51.748;19.620;2022-07-29T05:17:19;99400.00;;;14.72
69007;BMP180;56061;51.748;19.620;2022-07-29T05:19:46;99394.60;;;14.90
69007;BMP180;56061;51.748;19.620;2022-07-29T05:22:13;99386.80;;;15.00
69007;BMP180;56061;51.748;19.620;2022-07-29T05:24:39;99384.20;;;15.10
69007;BMP180;56061;51.748;19.620;2022-07-29T05:27:07;99384.80;;;15.20
69007;BMP180;56061;51.748;19.620;2022-07-29T05:29:34;99390.00;;;15.30
69007;BMP180;56061;51.748;19.620;2022-07-29T05:32:11;99388.80;;;15.40
69007;BMP180;56061;51.748;19.620;2022-07-29T05:34:39;99386.40;;;15.60
69007;BMP180;56061;51.748;19.620;2022-07-29T05:37:20;99392.40;;;15.70
69007;BMP180;56061;51.748;19.620;2022-07-29T05:39:46;99389.40;;;15.90
69007;BMP180;56061;51.748;19.620;2022-07-29T05:42:26;99383.60;;;15.92
69007;BMP180;56061;51.748;19.620;2022-07-29T05:44:53;99381.40;;;16.02
69007;BMP180;56061;51.748;19.620;2022-07-29T05:47:19;99382.60;;;16.20
69007;BMP180;56061;51.748;19.620;2022-07-29T05:49:46;99385.80;;;16.30
69007;BMP180;56061;51.748;19.620;2022-07-29T05:52:13;99379.20;;;16.42
69007;BMP180;56061;51.748;19.620;2022-07-29T05:54:40;99382.20;;;16.60
69007;BMP180;56061;51.748;19.620;2022-07-29T05:57:07;99379.00;;;16.76
69007;BMP180;56061;51.748;19.620;2022-07-29T05:59:37;99383.40;;;16.90
69007;BMP180;56061;51.748;19.620;2022-07-29T06:02:04;99383.00;;;17.00
69007;BMP180;56061;51.748;19.620;2022-07-29T06:04:32;99381.80;;;17.00
69007;BMP180;56061;51.748;19.620;2022-07-29T06:07:00;99386.60;;;17.00
69007;BMP180;56061;51.748;19.620;2022-07-29T06:09:28;99388.00;;;17.00
69007;BMP180;56061;51.748;19.620;2022-07-29T06:11:55;99395.60;;;17.10
69007;BMP180;56061;51.748;19.620;2022-07-29T06:14:22;99393.20;;;17.20
69007;BMP180;56061;51.748;19.620;2022-07-29T06:16:49;99390.20;;;17.30
69007;BMP180;56061;51.748;19.620;2022-07-29T06:19:16;99393.60;;;17.30
69007;BMP180;56061;51.748;19.620;2022-07-29T06:21:43;99390.20;;;17.40
69007;BMP180;56061;51.748;19.620;2022-07-29T06:24:11;99387.40;;;17.60
69007;BMP180;56061;51.748;19.620;2022-07-29T06:26:40;99385.80;;;17.70
69007;BMP180;56061;51.748;19.620;2022-07-29T06:29:09;99386.20;;;17.80
69007;BMP180;56061;51.748;19.620;2022-07-29T06:31:37;99384.80;;;18.00
69007;BMP180;56061;51.748;19.620;2022-07-29T06:34:04;99383.20;;;18.14
69007;BMP180;56061;51.748;19.620;2022-07-29T06:36:35;99383.20;;;18.30
69007;BMP180;56061;51.748;19.620;2022-07-29T06:39:05;99383.60;;;18.40
69007;BMP180;56061;51.748;19.620;2022-07-29T06:41:34;99384.20;;;18.50
69007;BMP180;56061;51.748;19.620;2022-07-29T06:44:01;99384.00;;;18.60
69007;BMP180;56061;51.748;19.620;2022-07-29T06:46:27;99381.60;;;18.70
69007;BMP180;56061;51.748;19.620;2022-07-29T06:48:54;99381.80;;;18.82
69007;BMP180;56061;51.748;19.620;2022-07-29T06:51:22;99379.40;;;19.00
69007;BMP180;56061;51.748;19.620;2022-07-29T06:53:53;99382.00;;;19.10
69007;BMP180;56061;51.748;19.620;2022-07-29T06:56:27;99383.00;;;19.20
69007;BMP180;56061;51.748;19.620;2022-07-29T06:58:54;99381.60;;;19.30
69007;BMP180;56061;51.748;19.620;2022-07-29T07:01:21;99382.00;;;19.52
69007;BMP180;56061;51.748;19.620;2022-07-29T07:03:48;99387.60;;;19.80
69007;BMP180;56061;51.748;19.620;2022-07-29T07:06:14;99389.40;;;20.00
69007;BMP180;56061;51.748;19.620;2022-07-29T07:08:41;99384.40;;;20.20
69007;BMP180;56061;51.748;19.620;2022-07-29T07:11:08;99375.60;;;20.40
69007;BMP180;56061;51.748;19.620;2022-07-29T07:13:35;99384.40;;;20.50
69007;BMP180;56061;51.748;19.620;2022-07-29T07:16:03;99380.20;;;20.60
69007;BMP180;56061;51.748;19.620;2022-07-29T07:18:30;99379.80;;;20.70
69007;BMP180;56061;51.748;19.620;2022-07-29T07:20:57;99379.60;;;20.90
69007;BMP180;56061;51.748;19.620;2022-07-29T07:23:24;99379.60;;;21.04
69007;BMP180;56061;51.748;19.620;2022-07-29T07:25:51;99382.60;;;21.20
69007;BMP180;56061;51.748;19.620;2022-07-29T07:28:18;99371.60;;;21.26
69007;BMP180;56061;51.748;19.620;2022-07-29T07:30:51;99374.60;;;21.40
69007;BMP180;56061;51.748;19.620;2022-07-29T07:33:18;99375.80;;;21.50
69007;BMP180;56061;51.748;19.620;2022-07-29T07:35:44;99375.20;;;21.50
69007;BMP180;56061;51.748;19.620;2022-07-29T07:38:12;99373.40;;;21.60
69007;BMP180;56061;51.748;19.620;2022-07-29T07:40:39;99368.20;;;21.60
69007;BMP180;56061;51.748;19.620;2022-07-29T07:43:06;99374.40;;;21.68
69007;BMP180;56061;51.748;19.620;2022-07-29T07:45:33;99369.40;;;21.70
69007;BMP180;56061;51.748;19.620;2022-07-29T07:48:00;99367.20;;;21.70
69007;BMP180;56061;51.748;19.620;2022-07-29T07:50:27;99366.20;;;21.80
69007;BMP180;56061;51.748;19.620;2022-07-29T07:52:55;99361.80;;;21.90
69007;BMP180;56061;51.748;19.620;2022-07-29T07:55:25;99355.40;;;22.02
69007;BMP180;56061;51.748;19.620;2022-07-29T07:57:54;99351.80;;;22.20
69007;BMP180;56061;51.748;19.620;2022-07-29T08:00:21;99357.20;;;22.50
69007;BMP180;56061;51.748;19.620;2022-07-29T08:02:49;99352.80;;;22.74
69007;BMP180;56061;51.748;19.620;2022-07-29T08:05:17;99355.60;;;22.90
69007;BMP180;56061;51.748;19.620;2022-07-29T08:07:46;99360.20;;;23.10
69007;BMP180;56061;51.748;19.620;2022-07-29T08:10:15;99362.00;;;23.30
69007;BMP180;56061;51.748;19.620;2022-07-29T08:13:08;99362.00;;;23.38
69007;BMP180;56061;51.748;19.620;2022-07-29T08:15:35;99363.80;;;23.40
69007;BMP180;56061;51.748;19.620;2022-07-29T08:18:02;99359.40;;;23.50
69007;BMP180;56061;51.748;19.620;2022-07-29T08:20:36;99353.00;;;23.60
69007;BMP180;56061;51.748;19.620;2022-07-29T08:23:07;99352.60;;;23.70
69007;BMP180;56061;51.748;19.620;2022-07-29T08:25:37;99354.40;;;23.80
69007;BMP180;56061;51.748;19.620;2022-07-29T08:28:07;99352.20;;;23.90
69007;BMP180;56061;51.748;19.620;2022-07-29T08:30:34;99353.40;;;23.90
69007;BMP180;56061;51.748;19.620;2022-07-29T08:33:01;99351.60;;;23.90
69007;BMP180;56061;51.748;19.620;2022-07-29T08:35:28;99351.00;;;24.00
69007;BMP180;56061;51.748;19.620;2022-07-29T08:38:01;99353.20;;;24.00
69007;BMP180;56061;51.748;19.620;2022-07-29T08:40:29;99352.40;;;24.00
69007;BMP180;56061;51.748;19.620;2022-07-29T08:43:03;99352.20;;;23.90
69007;BMP180;56061;51.748;19.620;2022-07-29T08:45:46;99356.20;;;23.90
69007;BMP180;56061;51.748;19.620;2022-07-29T08:48:21;99358.40;;;23.80
69007;BMP180;56061;51.748;19.620;2022-07-29T08:50:54;99357.00;;;23.80
69007;BMP180;56061;51.748;19.620;2022-07-29T08:53:26;99356.20;;;23.86
69007;BMP180;56061;51.748;19.620;2022-07-29T08:55:55;99362.40;;;23.90
69007;BMP180;56061;51.748;19.620;2022-07-29T08:58:23;99362.20;;;23.90
69007;BMP180;56061;51.748;19.620;2022-07-29T09:00:54;99362.20;;;23.92
69007;BMP180;56061;51.748;19.620;2022-07-29T09:03:30;99362.00;;;24.00
69007;BMP180;56061;51.748;19.620;2022-07-29T09:06:00;99363.60;;;24.10
69007;BMP180;56061;51.748;19.620;2022-07-29T09:08:27;99363.20;;;24.18
69007;BMP180;56061;51.748;19.620;2022-07-29T09:10:54;99363.60;;;24.30
69007;BMP180;56061;51.748;19.620;2022-07-29T09:13:25;99367.80;;;24.50
69007;BMP180;56061;51.748;19.620;2022-07-29T09:15:52;99368.40;;;24.52
69007;BMP180;56061;51.748;19.620;2022-07-29T09:21:06;99364.80;;;24.90
69007;BMP180;56061;51.748;19.620;2022-07-29T09:24:04;99368.40;;;25.00
69007;BMP180;56061;51.748;19.620;2022-07-29T09:26:37;99361.40;;;25.00
69007;BMP180;56061;51.748;19.620;2022-07-29T09:29:18;99357.00;;;25.00
69007;BMP180;56061;51.748;19.620;2022-07-29T09:31:49;99356.80;;;24.90
69007;BMP180;56061;51.748;19.620;2022-07-29T09:34:27;99358.60;;;24.80
69007;BMP180;56061;51.748;19.620;2022-07-29T09:36:58;99357.40;;;24.80
69007;BMP180;56061;51.748;19.620;2022-07-29T09:39:32;99356.20;;;24.90
69007;BMP180;56061;51.748;19.620;2022-07-29T09:42:05;99356.80;;;24.90
69007;BMP180;56061;51.748;19.620;2022-07-29T09:44:48;99350.80;;;25.00
69007;BMP180;56061;51.748;19.620;2022-07-29T09:47:19;99338.60;;;25.06
69007;BMP180;56061;51.748;19.620;2022-07-29T09:52:19;99335.60;;;25.20
69007;BMP180;56061;51.748;19.620;2022-07-29T09:54:46;99338.40;;;25.30
69007;BMP180;56061;51.748;19.620;2022-07-29T09:57:28;99331.40;;;25.30
69007;BMP180;56061;51.748;19.620;2022-07-29T10:00:17;99328.00;;;25.22
69007;BMP180;56061;51.748;19.620;2022-07-29T10:02:47;99328.00;;;25.20
69007;BMP180;56061;51.748;19.620;2022-07-29T10:05:21;99330.60;;;25.30
69007;BMP180;56061;51.748;19.620;2022-07-29T10:07:54;99325.00;;;25.40
69007;BMP180;56061;51.748;19.620;2022-07-29T10:10:34;99328.60;;;25.50
69007;BMP180;56061;51.748;19.620;2022-07-29T10:13:05;99325.40;;;25.60
69007;BMP180;56061;51.748;19.620;2022-07-29T10:15:41;99324.40;;;25.90
69007;BMP180;56061;51.748;19.620;2022-07-29T10:18:14;99322.00;;;26.10
69007;BMP180;56061;51.748;19.620;2022-07-29T10:20:41;99324.00;;;26.12
69007;BMP180;56061;51.748;19.620;2022-07-29T10:23:09;99319.00;;;26.20
69007;BMP180;56061;51.748;19.620;2022-07-29T10:25:36;99318.40;;;26.30
69007;BMP180;56061;51.748;19.620;2022-07-29T10:28:05;99310.80;;;26.30
69007;BMP180;56061;51.748;19.620;2022-07-29T10:30:33;99309.20;;;26.20
69007;BMP180;56061;51.748;19.620;2022-07-29T10:36:18;99315.00;;;26.00
69007;BMP180;56061;51.748;19.620;2022-07-29T10:38:59;99318.00;;;26.00
69007;BMP180;56061;51.748;19.620;2022-07-29T10:42:02;99315.80;;;26.00
69007;BMP180;56061;51.748;19.620;2022-07-29T10:44:39;99315.40;;;26.02
69007;BMP180;56061;51.748;19.620;2022-07-29T10:47:07;99310.40;;;26.10
69007;BMP180;56061;51.748;19.620;2022-07-29T10:49:35;99308.20;;;26.20
69007;BMP180;56061;51.748;19.620;2022-07-29T10:52:08;99298.00;;;26.30
69007;BMP180;56061;51.748;19.620;2022-07-29T10:54:38;99299.00;;;26.40
69007;BMP180;56061;51.748;19.620;2022-07-29T10:57:22;99298.00;;;26.40
69007;BMP180;56061;51.748;19.620;2022-07-29T11:02:44;99306.20;;;26.10
69007;BMP180;56061;51.748;19.620;2022-07-29T11:05:17;99302.20;;;26.20
69007;BMP180;56061;51.748;19.620;2022-07-29T11:10:51;99289.60;;;26.50
69007;BMP180;56061;51.748;19.620;2022-07-29T11:16:13;99280.20;;;26.90
69007;BMP180;56061;51.748;19.620;2022-07-29T11:21:57;99275.80;;;27.22
69007;BMP180;56061;51.748;19.620;2022-07-29T11:24:29;99277.20;;;27.22
69007;BMP180;56061;51.748;19.620;2022-07-29T11:27:17;99284.80;;;27.22
69007;BMP180;56061;51.748;19.620;2022-07-29T11:29:55;99278.80;;;27.30
69007;BMP180;56061;51.748;19.620;2022-07-29T11:32:25;99279.60;;;27.48
69007;BMP180;56061;51.748;19.620;2022-07-29T11:35:19;99272.00;;;27.46
69007;BMP180;56061;51.748;19.620;2022-07-29T11:38:26;99276.20;;;27.40
69007;BMP180;56061;51.748;19.620;2022-07-29T11:41:23;99275.60;;;27.20
69007;BMP180;56061;51.748;19.620;2022-07-29T11:43:58;99278.80;;;27.30
69007;BMP180;56061;51.748;19.620;2022-07-29T11:46:46;99279.80;;;27.30
69007;BMP180;56061;51.748;19.620;2022-07-29T11:49:24;99277.40;;;27.30
69007;BMP180;56061;51.748;19.620;2022-07-29T11:51:59;99273.80;;;27.34
69007;BMP180;56061;51.748;19.620;2022-07-29T11:54:34;99278.80;;;27.36
69007;BMP180;56061;51.748;19.620;2022-07-29T11:57:21;99281.20;;;27.30
69007;BMP180;56061;51.748;19.620;2022-07-29T12:00:07;99289.00;;;27.10
69007;BMP180;56061;51.748;19.620;2022-07-29T12:02:43;99287.00;;;26.90
69007;BMP180;56061;51.748;19.620;2022-07-29T12:05:14;99285.20;;;26.90
69007;BMP180;56061;51.748;19.620;2022-07-29T12:08:20;99286.00;;;27.06
69007;BMP180;56061;51.748;19.620;2022-07-29T12:10:50;99289.20;;;27.20
69007;BMP180;56061;51.748;19.620;2022-07-29T12:13:20;99284.80;;;27.26
69007;BMP180;56061;51.748;19.620;2022-07-29T12:15:56;99285.00;;;27.30
69007;BMP180;56061;51.748;19.620;2022-07-29T12:18:26;99284.00;;;27.40
69007;BMP180;56061;51.748;19.620;2022-07-29T12:20:59;99277.40;;;27.58
69007;BMP180;56061;51.748;19.620;2022-07-29T12:23:31;99268.60;;;27.70
69007;BMP180;56061;51.748;19.620;2022-07-29T12:26:04;99268.00;;;27.80
69007;BMP180;56061;51.748;19.620;2022-07-29T12:28:38;99269.60;;;27.90
69007;BMP180;56061;51.748;19.620;2022-07-29T12:31:05;99266.00;;;28.00
69007;BMP180;56061;51.748;19.620;2022-07-29T12:33:39;99263.00;;;27.92
69007;BMP180;56061;51.748;19.620;2022-07-29T12:36:07;99256.60;;;27.80
69007;BMP180;56061;51.748;19.620;2022-07-29T12:38:44;99263.20;;;27.80
69007;BMP180;56061;51.748;19.620;2022-07-29T12:41:12;99263.60;;;27.70
69007;BMP180;56061;51.748;19.620;2022-07-29T12:43:53;99262.60;;;27.58
69007;BMP180;56061;51.748;19.620;2022-07-29T12:46:21;99263.00;;;27.60
69007;BMP180;56061;51.748;19.620;2022-07-29T12:48:52;99253.00;;;27.60
69007;BMP180;56061;51.748;19.620;2022-07-29T12:51:39;99248.80;;;27.70
69007;BMP180;56061;51.748;19.620;2022-07-29T12:54:11;99245.20;;;27.70
69007;BMP180;56061;51.748;19.620;2022-07-29T12:56:41;99244.00;;;27.68
69007;BMP180;56061;51.748;19.620;2022-07-29T12:59:21;99236.60;;;27.60
69007;BMP180;56061;51.748;19.620;2022-07-29T13:01:51;99243.40;;;27.60
69007;BMP180;56061;51.748;19.620;2022-07-29T13:04:33;99238.80;;;27.60
69007;BMP180;56061;51.748;19.620;2022-07-29T13:07:06;99240.80;;;27.70
69007;BMP180;56061;51.748;19.620;2022-07-29T13:09:44;99239.40;;;27.70
69007;BMP180;56061;51.748;19.620;2022-07-29T13:12:14;99236.00;;;27.70
69007;BMP180;56061;51.748;19.620;2022-07-29T13:14:44;99234.00;;;27.80
69007;BMP180;56061;51.748;19.620;2022-07-29T13:17:16;99232.00;;;27.90
69007;BMP180;56061;51.748;19.620;2022-07-29T13:19:53;99231.80;;;28.10
69007;BMP180;56061;51.748;19.620;2022-07-29T13:22:23;99233.00;;;28.16
69007;BMP180;56061;51.748;19.620;2022-07-29T13:24:55;99231.80;;;28.10
69007;BMP180;56061;51.748;19.620;2022-07-29T13:27:29;99232.20;;;28.10
69007;BMP180;56061;51.748;19.620;2022-07-29T13:29:59;99231.20;;;28.10
69007;BMP180;56061;51.748;19.620;2022-07-29T13:32:29;99232.40;;;28.12
69007;BMP180;56061;51.748;19.620;2022-07-29T13:34:59;99229.40;;;28.10
69007;BMP180;56061;51.748;19.620;2022-07-29T13:37:31;99227.60;;;28.08
69007;BMP180;56061;51.748;19.620;2022-07-29T13:40:02;99222.20;;;28.02
69007;BMP180;56061;51.748;19.620;2022-07-29T13:42:31;99219.00;;;28.10
69007;BMP180;56061;51.748;19.620;2022-07-29T13:45:00;99211.40;;;28.20
69007;BMP180;56061;51.748;19.620;2022-07-29T13:47:28;99209.60;;;28.30
69007;BMP180;56061;51.748;19.620;2022-07-29T13:50:00;99214.20;;;28.30
69007;BMP180;56061;51.748;19.620;2022-07-29T13:52:28;99219.00;;;28.30
69007;BMP180;56061;51.748;19.620;2022-07-29T13:54:55;99215.40;;;28.20
69007;BMP180;56061;51.748;19.620;2022-07-29T13:57:22;99211.60;;;28.20
69007;BMP180;56061;51.748;19.620;2022-07-29T13:59:48;99205.60;;;28.10
69007;BMP180;56061;51.748;19.620;2022-07-29T14:02:21;99210.40;;;28.16
69007;BMP180;56061;51.748;19.620;2022-07-29T14:04:55;99214.00;;;28.30
69007;BMP180;56061;51.748;19.620;2022-07-29T14:07:22;99213.00;;;28.30
69007;BMP180;56061;51.748;19.620;2022-07-29T14:09:49;99207.00;;;28.18
69007;BMP180;56061;51.748;19.620;2022-07-29T14:12:16;99208.00;;;28.00
69007;BMP180;56061;51.748;19.620;2022-07-29T14:14:43;99198.60;;;27.80
69007;BMP180;56061;51.748;19.620;2022-07-29T14:17:13;99200.00;;;27.60
69007;BMP180;56061;51.748;19.620;2022-07-29T14:19:41;99204.20;;;27.50
69007;BMP180;56061;51.748;19.620;2022-07-29T14:22:09;99208.00;;;27.40
69007;BMP180;56061;51.748;19.620;2022-07-29T14:24:37;99209.00;;;27.30
69007;BMP180;56061;51.748;19.620;2022-07-29T14:27:05;99203.60;;;27.30
69007;BMP180;56061;51.748;19.620;2022-07-29T14:29:34;99203.40;;;27.14
69007;BMP180;56061;51.748;19.620;2022-07-29T14:32:09;99198.60;;;26.94
69007;BMP180;56061;51.748;19.620;2022-07-29T14:34:37;99198.80;;;26.72
69007;BMP180;56061;51.748;19.620;2022-07-29T14:37:05;99195.20;;;26.60
69007;BMP180;56061;51.748;19.620;2022-07-29T14:39:34;99189.40;;;26.42
69007;BMP180;56061;51.748;19.620;2022-07-29T14:42:10;99181.00;;;26.30
69007;BMP180;56061;51.748;19.620;2022-07-29T14:44:39;99179.60;;;26.30
69007;BMP180;56061;51.748;19.620;2022-07-29T14:47:08;99180.00;;;26.30
69007;BMP180;56061;51.748;19.620;2022-07-29T14:49:35;99180.20;;;26.30
69007;BMP180;56061;51.748;19.620;2022-07-29T14:52:04;99174.80;;;26.40